Aviation Digital Data Service (ADDS)

Output produced by METARs form (0000 UTC 26 May 2017)
found at http://aviationweather.gov/adds/metars/
 
KSSI 252321Z 2600/2624 26010KT P6SM SKC 
     FM260200 25004KT P6SM SKC 
     FM261400 26007KT P6SM FEW250 
     FM261800 18008KT P6SM FEW250 
     FM262100 15009KT P6SM FEW250